sensor_id;sensor_type;location;lat;lon;timestamp;temperature;humidity
1021;DHT22;499;42.648;23.270;2023-04-15T00:02:18;6.70;53.60
1021;DHT22;499;42.648;23.270;2023-04-15T00:04:45;6.80;52.50
1021;DHT22;499;42.648;23.270;2023-04-15T00:07:14;7.00;51.20
1021;DHT22;499;42.648;23.270;2023-04-15T00:09:41;7.00;52.70
1021;DHT22;499;42.648;23.270;2023-04-15T00:12:10;6.90;52.70
1021;DHT22;499;42.648;23.270;2023-04-15T00:14:37;6.80;57.00
1021;DHT22;499;42.648;23.270;2023-04-15T00:17:04;6.80;61.10
1021;DHT22;499;42.648;23.270;2023-04-15T00:19:32;6.90;62.80
1021;DHT22;499;42.648;23.270;2023-04-15T00:21:59;6.90;61.60
1021;DHT22;499;42.648;23.270;2023-04-15T00:24:27;7.00;58.90
1021;DHT22;499;42.648;23.270;2023-04-15T00:26:56;6.90;57.70
1021;DHT22;499;42.648;23.270;2023-04-15T00:29:23;7.00;56.80
1021;DHT22;499;42.648;23.270;2023-04-15T00:31:51;7.00;57.10
1021;DHT22;499;42.648;23.270;2023-04-15T00:34:18;7.00;54.90
1021;DHT22;499;42.648;23.270;2023-04-15T00:36:45;7.10;55.10
1021;DHT22;499;42.648;23.270;2023-04-15T00:39:12;7.10;54.30
1021;DHT22;499;42.648;23.270;2023-04-15T00:41:40;7.30;54.90
1021;DHT22;499;42.648;23.270;2023-04-15T00:44:08;7.60;55.20
1021;DHT22;499;42.648;23.270;2023-04-15T00:46:36;7.60;52.80
1021;DHT22;499;42.648;23.270;2023-04-15T00:49:05;7.40;52.20
1021;DHT22;499;42.648;23.270;2023-04-15T00:51:32;7.20;53.90
1021;DHT22;499;42.648;23.270;2023-04-15T00:54:02;7.30;54.20
1021;DHT22;499;42.648;23.270;2023-04-15T00:56:30;7.20;55.00
1021;DHT22;499;42.648;23.270;2023-04-15T00:59:00;7.20;53.90
1021;DHT22;499;42.648;23.270;2023-04-15T01:01:28;7.20;50.00
1021;DHT22;499;42.648;23.270;2023-04-15T01:03:56;7.10;50.00
1021;DHT22;499;42.648;23.270;2023-04-15T01:06:24;7.10;49.40
1021;DHT22;499;42.648;23.270;2023-04-15T01:08:52;7.00;49.70
1021;DHT22;499;42.648;23.270;2023-04-15T01:11:20;7.10;47.00
1021;DHT22;499;42.648;23.270;2023-04-15T01:13:47;7.10;46.50
1021;DHT22;499;42.648;23.270;2023-04-15T01:16:16;7.00;48.30
1021;DHT22;499;42.648;23.270;2023-04-15T01:18:43;7.00;48.20
1021;DHT22;499;42.648;23.270;2023-04-15T01:21:10;7.00;48.80
1021;DHT22;499;42.648;23.270;2023-04-15T01:23:38;7.00;48.20
1021;DHT22;499;42.648;23.270;2023-04-15T01:26:07;7.10;47.20
1021;DHT22;499;42.648;23.270;2023-04-15T01:28:35;7.10;46.60
1021;DHT22;499;42.648;23.270;2023-04-15T01:31:07;7.20;46.40
1021;DHT22;499;42.648;23.270;2023-04-15T01:33:35;7.10;45.30
1021;DHT22;499;42.648;23.270;2023-04-15T01:36:03;7.00;45.90
1021;DHT22;499;42.648;23.270;2023-04-15T01:38:32;6.80;48.00
1021;DHT22;499;42.648;23.270;2023-04-15T01:40:59;6.80;47.60
1021;DHT22;499;42.648;23.270;2023-04-15T01:43:28;6.90;48.10
1021;DHT22;499;42.648;23.270;2023-04-15T01:45:55;6.70;48.60
1021;DHT22;499;42.648;23.270;2023-04-15T01:48:22;6.70;50.00
1021;DHT22;499;42.648;23.270;2023-04-15T01:50:49;6.60;50.30
1021;DHT22;499;42.648;23.270;2023-04-15T01:53:16;6.60;50.30
1021;DHT22;499;42.648;23.270;2023-04-15T01:55:43;6.50;52.30
1021;DHT22;499;42.648;23.270;2023-04-15T01:58:10;6.40;52.30
1021;DHT22;499;42.648;23.270;2023-04-15T02:00:39;6.30;54.60
1021;DHT22;499;42.648;23.270;2023-04-15T02:03:06;6.20;56.90
1021;DHT22;499;42.648;23.270;2023-04-15T02:05:33;6.10;56.50
1021;DHT22;499;42.648;23.270;2023-04-15T02:08:01;6.00;57.00
1021;DHT22;499;42.648;23.270;2023-04-15T02:10:30;6.00;57.70
1021;DHT22;499;42.648;23.270;2023-04-15T02:12:59;6.10;57.40
1021;DHT22;499;42.648;23.270;2023-04-15T02:15:28;6.20;56.50
1021;DHT22;499;42.648;23.270;2023-04-15T02:18:04;6.10;55.60
1021;DHT22;499;42.648;23.270;2023-04-15T02:20:33;6.20;57.20
1021;DHT22;499;42.648;23.270;2023-04-15T02:23:01;6.10;56.40
1021;DHT22;499;42.648;23.270;2023-04-15T02:25:32;6.20;56.60
1021;DHT22;499;42.648;23.270;2023-04-15T02:28:00;6.10;55.70
1021;DHT22;499;42.648;23.270;2023-04-15T02:33:50;6.00;56.40
1021;DHT22;499;42.648;23.270;2023-04-15T02:36:17;5.90;56.20
1021;DHT22;499;42.648;23.270;2023-04-15T02:38:45;5.80;57.70
1021;DHT22;499;42.648;23.270;2023-04-15T02:41:13;5.90;57.60
1021;DHT22;499;42.648;23.270;2023-04-15T02:43:40;5.80;58.00
1021;DHT22;499;42.648;23.270;2023-04-15T02:46:08;5.70;59.50
1021;DHT22;499;42.648;23.270;2023-04-15T02:48:39;5.70;62.10
1021;DHT22;499;42.648;23.270;2023-04-15T02:51:15;5.80;61.70
1021;DHT22;499;42.648;23.270;2023-04-15T02:53:44;5.80;60.00
1021;DHT22;499;42.648;23.270;2023-04-15T02:56:11;5.70;58.80
1021;DHT22;499;42.648;23.270;2023-04-15T02:58:40;5.80;59.20
1021;DHT22;499;42.648;23.270;2023-04-15T03:01:07;5.70;57.50
1021;DHT22;499;42.648;23.270;2023-04-15T03:03:34;5.70;57.50
1021;DHT22;499;42.648;23.270;2023-04-15T03:06:01;5.70;58.60
1021;DHT22;499;42.648;23.270;2023-04-15T03:08:29;5.70;57.60
1021;DHT22;499;42.648;23.270;2023-04-15T03:10:57;5.80;59.50
1021;DHT22;499;42.648;23.270;2023-04-15T03:13:27;5.60;63.10
1021;DHT22;499;42.648;23.270;2023-04-15T03:15:56;5.60;63.80
1021;DHT22;499;42.648;23.270;2023-04-15T03:18:24;5.50;65.50
1021;DHT22;499;42.648;23.270;2023-04-15T03:20:53;5.40;65.70
1021;DHT22;499;42.648;23.270;2023-04-15T03:23:20;5.50;66.20
1021;DHT22;499;42.648;23.270;2023-04-15T03:25:49;5.50;62.30
1021;DHT22;499;42.648;23.270;2023-04-15T03:28:16;5.60;63.40
1021;DHT22;499;42.648;23.270;2023-04-15T03:30:43;5.40;61.50
1021;DHT22;499;42.648;23.270;2023-04-15T03:33:11;5.40;61.90
1021;DHT22;499;42.648;23.270;2023-04-15T03:35:38;5.40;61.50
1021;DHT22;499;42.648;23.270;2023-04-15T03:38:05;5.40;63.40
1021;DHT22;499;42.648;23.270;2023-04-15T03:40:33;5.30;61.90
1021;DHT22;499;42.648;23.270;2023-04-15T03:43:01;5.20;64.80
1021;DHT22;499;42.648;23.270;2023-04-15T03:45:28;5.20;65.80
1021;DHT22;499;42.648;23.270;2023-04-15T03:47:55;5.20;67.50
1021;DHT22;499;42.648;23.270;2023-04-15T03:50:22;5.10;68.70
1021;DHT22;499;42.648;23.270;2023-04-15T03:52:49;5.20;69.40
1021;DHT22;499;42.648;23.270;2023-04-15T03:55:16;5.20;69.80
1021;DHT22;499;42.648;23.270;2023-04-15T03:57:44;5.10;70.30
1021;DHT22;499;42.648;23.270;2023-04-15T04:00:13;5.10;69.60
1021;DHT22;499;42.648;23.270;2023-04-15T04:02:40;5.10;73.10
1021;DHT22;499;42.648;23.270;2023-04-15T04:05:07;5.10;71.90
1021;DHT22;499;42.648;23.270;2023-04-15T04:07:35;5.20;74.40
1021;DHT22;499;42.648;23.270;2023-04-15T04:10:02;5.20;74.40
1021;DHT22;499;42.648;23.270;2023-04-15T04:12:29;5.30;74.50
1021;DHT22;499;42.648;23.270;2023-04-15T04:14:56;5.30;75.40
1021;DHT22;499;42.648;23.270;2023-04-15T04:17:25;5.40;73.10
1021;DHT22;499;42.648;23.270;2023-04-15T04:19:52;5.50;72.20
1021;DHT22;499;42.648;23.270;2023-04-15T04:22:21;5.70;70.20
1021;DHT22;499;42.648;23.270;2023-04-15T04:24:48;5.70;67.70
1021;DHT22;499;42.648;23.270;2023-04-15T04:27:16;5.80;65.50
1021;DHT22;499;42.648;23.270;2023-04-15T04:29:43;6.00;66.40
1021;DHT22;499;42.648;23.270;2023-04-15T04:32:12;6.10;63.60
1021;DHT22;499;42.648;23.270;2023-04-15T04:34:40;6.10;63.80
1021;DHT22;499;42.648;23.270;2023-04-15T04:37:07;6.20;62.40
1021;DHT22;499;42.648;23.270;2023-04-15T04:39:34;6.40;61.20
1021;DHT22;499;42.648;23.270;2023-04-15T04:42:02;6.50;60.70
1021;DHT22;499;42.648;23.270;2023-04-15T04:44:29;6.50;58.10
1021;DHT22;499;42.648;23.270;2023-04-15T04:46:56;6.60;59.00
1021;DHT22;499;42.648;23.270;2023-04-15T04:49:23;6.80;57.70
1021;DHT22;499;42.648;23.270;2023-04-15T04:51:52;6.90;56.60
1021;DHT22;499;42.648;23.270;2023-04-15T04:54:19;7.10;57.20
1021;DHT22;499;42.648;23.270;2023-04-15T04:56:46;7.30;51.60
1021;DHT22;499;42.648;23.270;2023-04-15T04:59:14;7.40;48.50
1021;DHT22;499;42.648;23.270;2023-04-15T05:01:41;7.40;49.00
1021;DHT22;499;42.648;23.270;2023-04-15T05:04:08;7.50;48.40
1021;DHT22;499;42.648;23.270;2023-04-15T05:06:39;7.50;48.60
1021;DHT22;499;42.648;23.270;2023-04-15T05:09:09;7.50;49.80
1021;DHT22;499;42.648;23.270;2023-04-15T05:11:37;7.60;48.70
1021;DHT22;499;42.648;23.270;2023-04-15T05:14:04;7.60;48.30
1021;DHT22;499;42.648;23.270;2023-04-15T05:16:31;7.60;47.80
1021;DHT22;499;42.648;23.270;2023-04-15T05:18:58;7.60;45.60
1021;DHT22;499;42.648;23.270;2023-04-15T05:21:25;7.60;44.10
1021;DHT22;499;42.648;23.270;2023-04-15T05:23:53;7.60;42.70
1021;DHT22;499;42.648;23.270;2023-04-15T05:26:21;7.60;44.10
1021;DHT22;499;42.648;23.270;2023-04-15T05:28:48;7.50;43.10
1021;DHT22;499;42.648;23.270;2023-04-15T05:31:15;7.50;44.00
1021;DHT22;499;42.648;23.270;2023-04-15T05:33:43;7.50;44.00
1021;DHT22;499;42.648;23.270;2023-04-15T05:36:10;7.60;44.10
1021;DHT22;499;42.648;23.270;2023-04-15T05:38:37;7.70;43.70
1021;DHT22;499;42.648;23.270;2023-04-15T05:41:04;7.80;41.80
1021;DHT22;499;42.648;23.270;2023-04-15T05:43:33;7.80;41.40
1021;DHT22;499;42.648;23.270;2023-04-15T05:46:00;7.80;42.20
1021;DHT22;499;42.648;23.270;2023-04-15T05:48:27;7.90;42.20
1021;DHT22;499;42.648;23.270;2023-04-15T05:50:54;8.00;42.20
1021;DHT22;499;42.648;23.270;2023-04-15T05:53:21;8.10;42.10
1021;DHT22;499;42.648;23.270;2023-04-15T05:55:48;8.30;40.10
1021;DHT22;499;42.648;23.270;2023-04-15T05:58:15;8.40;40.20
1021;DHT22;499;42.648;23.270;2023-04-15T06:00:44;8.60;41.70
1021;DHT22;499;42.648;23.270;2023-04-15T06:03:12;8.80;41.80
1021;DHT22;499;42.648;23.270;2023-04-15T06:05:39;8.90;37.80
1021;DHT22;499;42.648;23.270;2023-04-15T06:08:06;9.00;36.80
1021;DHT22;499;42.648;23.270;2023-04-15T06:10:34;9.10;37.80
1021;DHT22;499;42.648;23.270;2023-04-15T06:13:01;9.20;37.40
1021;DHT22;499;42.648;23.270;2023-04-15T06:15:29;9.30;33.40
1021;DHT22;499;42.648;23.270;2023-04-15T06:17:57;9.20;31.30
1021;DHT22;499;42.648;23.270;2023-04-15T06:20:25;9.10;33.70
1021;DHT22;499;42.648;23.270;2023-04-15T06:22:53;9.10;34.20
1021;DHT22;499;42.648;23.270;2023-04-15T06:25:21;9.20;32.30
1021;DHT22;499;42.648;23.270;2023-04-15T06:27:49;9.20;32.50
1021;DHT22;499;42.648;23.270;2023-04-15T06:30:16;9.30;32.80
1021;DHT22;499;42.648;23.270;2023-04-15T06:32:44;9.40;33.00
1021;DHT22;499;42.648;23.270;2023-04-15T06:35:12;9.30;31.40
1021;DHT22;499;42.648;23.270;2023-04-15T06:37:40;9.30;33.10
1021;DHT22;499;42.648;23.270;2023-04-15T06:40:08;9.50;33.00
1021;DHT22;499;42.648;23.270;2023-04-15T06:42:36;9.60;33.00
1021;DHT22;499;42.648;23.270;2023-04-15T06:45:04;9.60;31.60
1021;DHT22;499;42.648;23.270;2023-04-15T06:47:31;9.70;31.60
1021;DHT22;499;42.648;23.270;2023-04-15T06:49:58;9.70;32.20
1021;DHT22;499;42.648;23.270;2023-04-15T06:52:27;9.90;31.40
1021;DHT22;499;42.648;23.270;2023-04-15T06:54:54;10.10;31.10
1021;DHT22;499;42.648;23.270;2023-04-15T06:57:22;10.30;29.70
1021;DHT22;499;42.648;23.270;2023-04-15T06:59:49;10.40;28.80
1021;DHT22;499;42.648;23.270;2023-04-15T07:02:17;10.40;28.90
1021;DHT22;499;42.648;23.270;2023-04-15T07:04:44;10.50;28.90
1021;DHT22;499;42.648;23.270;2023-04-15T07:07:11;10.60;28.20
1021;DHT22;499;42.648;23.270;2023-04-15T07:09:41;10.90;28.30
1021;DHT22;499;42.648;23.270;2023-04-15T07:12:08;10.90;26.50
1021;DHT22;499;42.648;23.270;2023-04-15T07:14:35;10.90;26.40
1021;DHT22;499;42.648;23.270;2023-04-15T07:17:02;10.90;27.70
1021;DHT22;499;42.648;23.270;2023-04-15T07:19:29;11.00;27.80
1021;DHT22;499;42.648;23.270;2023-04-15T07:21:56;11.20;27.90
1021;DHT22;499;42.648;23.270;2023-04-15T07:24:23;11.40;26.50
1021;DHT22;499;42.648;23.270;2023-04-15T07:26:52;11.50;24.30
1021;DHT22;499;42.648;23.270;2023-04-15T07:29:21;11.60;24.40
1021;DHT22;499;42.648;23.270;2023-04-15T07:31:48;11.60;24.40
1021;DHT22;499;42.648;23.270;2023-04-15T07:34:15;11.60;23.90
1021;DHT22;499;42.648;23.270;2023-04-15T07:36:43;11.50;24.10
1021;DHT22;499;42.648;23.270;2023-04-15T07:39:10;11.60;24.40
1021;DHT22;499;42.648;23.270;2023-04-15T07:41:37;11.70;23.40
1021;DHT22;499;42.648;23.270;2023-04-15T07:44:06;11.80;22.10
1021;DHT22;499;42.648;23.270;2023-04-15T07:46:33;11.90;21.10
1021;DHT22;499;42.648;23.270;2023-04-15T07:49:01;11.90;22.70
1021;DHT22;499;42.648;23.270;2023-04-15T07:51:28;12.00;22.20
1021;DHT22;499;42.648;23.270;2023-04-15T07:53:56;12.00;21.20
1021;DHT22;499;42.648;23.270;2023-04-15T07:56:24;12.00;20.80
1021;DHT22;499;42.648;23.270;2023-04-15T07:58:51;11.90;22.60
1021;DHT22;499;42.648;23.270;2023-04-15T08:01:19;12.00;24.60
1021;DHT22;499;42.648;23.270;2023-04-15T08:03:46;12.10;22.50
1021;DHT22;499;42.648;23.270;2023-04-15T08:06:13;12.20;20.90
1021;DHT22;499;42.648;23.270;2023-04-15T08:08:40;12.20;20.90
1021;DHT22;499;42.648;23.270;2023-04-15T08:11:08;12.30;21.20
1021;DHT22;499;42.648;23.270;2023-04-15T08:13:35;12.40;20.80
1021;DHT22;499;42.648;23.270;2023-04-15T08:16:14;12.40;20.70
1021;DHT22;499;42.648;23.270;2023-04-15T08:18:43;12.60;21.20
1021;DHT22;499;42.648;23.270;2023-04-15T08:21:11;12.80;20.70
1021;DHT22;499;42.648;23.270;2023-04-15T08:23:38;12.90;18.00
1021;DHT22;499;42.648;23.270;2023-04-15T08:26:05;12.90;17.80
1021;DHT22;499;42.648;23.270;2023-04-15T08:28:33;13.30;19.10
1021;DHT22;499;42.648;23.270;2023-04-15T08:31:00;13.60;17.00
1021;DHT22;499;42.648;23.270;2023-04-15T08:33:29;13.80;16.80
1021;DHT22;499;42.648;23.270;2023-04-15T08:35:59;14.20;13.20
1021;DHT22;499;42.648;23.270;2023-04-15T08:38:27;14.30;11.80
1021;DHT22;499;42.648;23.270;2023-04-15T08:40:58;14.40;11.90
1021;DHT22;499;42.648;23.270;2023-04-15T08:43:27;14.50;10.60
1021;DHT22;499;42.648;23.270;2023-04-15T08:46:00;14.10;10.30
1021;DHT22;499;42.648;23.270;2023-04-15T08:48:28;14.40;12.10
1021;DHT22;499;42.648;23.270;2023-04-15T08:50:57;14.50;10.80
1021;DHT22;499;42.648;23.270;2023-04-15T08:53:25;14.50;8.90
1021;DHT22;499;42.648;23.270;2023-04-15T08:55:54;14.20;10.50
1021;DHT22;499;42.648;23.270;2023-04-15T08:58:23;13.80;8.60
1021;DHT22;499;42.648;23.270;2023-04-15T09:00:51;14.10;10.30
1021;DHT22;499;42.648;23.270;2023-04-15T09:03:19;14.30;10.30
1021;DHT22;499;42.648;23.270;2023-04-15T09:05:49;14.40;8.30
1021;DHT22;499;42.648;23.270;2023-04-15T09:08:19;14.50;9.10
1021;DHT22;499;42.648;23.270;2023-04-15T09:10:47;14.40;8.10
1021;DHT22;499;42.648;23.270;2023-04-15T09:13:15;14.50;8.80
1021;DHT22;499;42.648;23.270;2023-04-15T09:15:45;14.70;6.50
1021;DHT22;499;42.648;23.270;2023-04-15T09:18:27;14.30;5.40
1021;DHT22;499;42.648;23.270;2023-04-15T09:21:05;14.20;7.00
1021;DHT22;499;42.648;23.270;2023-04-15T09:48:39;15.00;7.40
1021;DHT22;499;42.648;23.270;2023-04-15T09:51:08;15.50;4.60
1021;DHT22;499;42.648;23.270;2023-04-15T09:53:38;15.00;2.50
1021;DHT22;499;42.648;23.270;2023-04-15T09:56:09;14.80;2.40
1021;DHT22;499;42.648;23.270;2023-04-15T09:58:37;14.50;3.50
1021;DHT22;499;42.648;23.270;2023-04-15T10:01:08;14.50;4.30
1021;DHT22;499;42.648;23.270;2023-04-15T10:03:40;14.70;4.50
1021;DHT22;499;42.648;23.270;2023-04-15T10:06:11;14.90;3.30
1021;DHT22;499;42.648;23.270;2023-04-15T10:08:42;14.90;4.30
1021;DHT22;499;42.648;23.270;2023-04-15T10:11:16;15.20;5.20
1021;DHT22;499;42.648;23.270;2023-04-15T10:13:48;15.20;4.10
1021;DHT22;499;42.648;23.270;2023-04-15T10:16:19;15.20;3.50
1021;DHT22;499;42.648;23.270;2023-04-15T10:18:55;15.30;2.50
1021;DHT22;499;42.648;23.270;2023-04-15T10:21:25;15.50;4.10
1021;DHT22;499;42.648;23.270;2023-04-15T10:23:58;15.80;4.10
1021;DHT22;499;42.648;23.270;2023-04-15T10:26:31;15.80;3.90
1021;DHT22;499;42.648;23.270;2023-04-15T10:29:03;15.90;4.20
1021;DHT22;499;42.648;23.270;2023-04-15T10:31:37;16.10;3.70
1021;DHT22;499;42.648;23.270;2023-04-15T10:34:18;16.10;2.20
1021;DHT22;499;42.648;23.270;2023-04-15T10:36:48;16.10;5.00
1021;DHT22;499;42.648;23.270;2023-04-15T10:39:39;16.00;3.10
1021;DHT22;499;42.648;23.270;2023-04-15T10:42:08;16.20;3.80
1021;DHT22;499;42.648;23.270;2023-04-15T10:44:40;16.20;3.30
1021;DHT22;499;42.648;23.270;2023-04-15T10:47:13;16.60;4.60
1021;DHT22;499;42.648;23.270;2023-04-15T10:49:48;16.70;2.80
1021;DHT22;499;42.648;23.270;2023-04-15T10:52:21;16.40;4.10
1021;DHT22;499;42.648;23.270;2023-04-15T10:55:01;16.50;3.50
1021;DHT22;499;42.648;23.270;2023-04-15T10:57:34;16.80;4.10
1021;DHT22;499;42.648;23.270;2023-04-15T11:00:14;16.10;1.60
1021;DHT22;499;42.648;23.270;2023-04-15T11:02:51;16.30;2.80
1021;DHT22;499;42.648;23.270;2023-04-15T11:05:48;16.40;2.50
1021;DHT22;499;42.648;23.270;2023-04-15T11:08:21;16.30;2.90
1021;DHT22;499;42.648;23.270;2023-04-15T11:11:09;16.20;2.90
1021;DHT22;499;42.648;23.270;2023-04-15T11:13:47;16.00;1.80
1021;DHT22;499;42.648;23.270;2023-04-15T11:16:17;16.00;1.60
1021;DHT22;499;42.648;23.270;2023-04-15T11:18:53;16.20;2.10
1021;DHT22;499;42.648;23.270;2023-04-15T11:21:24;16.10;3.00
1021;DHT22;499;42.648;23.270;2023-04-15T11:23:52;16.70;2.10
1021;DHT22;499;42.648;23.270;2023-04-15T11:26:25;17.00;2.90
1021;DHT22;499;42.648;23.270;2023-04-15T11:28:52;16.80;2.50
1021;DHT22;499;42.648;23.270;2023-04-15T11:31:19;16.40;1.40
1021;DHT22;499;42.648;23.270;2023-04-15T11:33:54;16.50;3.90
1021;DHT22;499;42.648;23.270;2023-04-15T11:36:25;16.40;3.00
1021;DHT22;499;42.648;23.270;2023-04-15T11:38:53;16.20;3.20
1021;DHT22;499;42.648;23.270;2023-04-15T11:41:20;16.00;3.70
1021;DHT22;499;42.648;23.270;2023-04-15T11:43:48;16.10;3.80
1021;DHT22;499;42.648;23.270;2023-04-15T11:46:15;16.10;3.70
1021;DHT22;499;42.648;23.270;2023-04-15T11:48:44;16.40;3.70
1021;DHT22;499;42.648;23.270;2023-04-15T11:51:12;16.30;3.80
1021;DHT22;499;42.648;23.270;2023-04-15T11:53:43;16.20;3.40
1021;DHT22;499;42.648;23.270;2023-04-15T11:56:16;16.20;3.80
1021;DHT22;499;42.648;23.270;2023-04-15T11:58:44;16.20;3.90
1021;DHT22;499;42.648;23.270;2023-04-15T12:01:12;16.20;3.30
1021;DHT22;499;42.648;23.270;2023-04-15T12:03:40;16.10;3.20
1021;DHT22;499;42.648;23.270;2023-04-15T12:06:11;16.40;3.50
1021;DHT22;499;42.648;23.270;2023-04-15T12:08:56;16.40;3.90
1021;DHT22;499;42.648;23.270;2023-04-15T12:11:33;16.40;3.80
1021;DHT22;499;42.648;23.270;2023-04-15T12:14:05;16.50;2.60
1021;DHT22;499;42.648;23.270;2023-04-15T12:16:33;16.70;2.10
1021;DHT22;499;42.648;23.270;2023-04-15T12:19:05;16.80;1.40
1021;DHT22;499;42.648;23.270;2023-04-15T12:21:34;16.90;1.20
1021;DHT22;499;42.648;23.270;2023-04-15T12:24:05;16.70;1.00
1021;DHT22;499;42.648;23.270;2023-04-15T12:26:35;16.80;1.30
1021;DHT22;499;42.648;23.270;2023-04-15T12:29:04;17.00;1.60
1021;DHT22;499;42.648;23.270;2023-04-15T12:31:31;17.10;1.50
1021;DHT22;499;42.648;23.270;2023-04-15T12:34:00;17.30;1.90
1021;DHT22;499;42.648;23.270;2023-04-15T12:36:28;17.10;1.00
1021;DHT22;499;42.648;23.270;2023-04-15T12:39:01;17.40;1.00
1021;DHT22;499;42.648;23.270;2023-04-15T12:41:29;17.40;1.00
1021;DHT22;499;42.648;23.270;2023-04-15T12:43:57;17.60;1.10
1021;DHT22;499;42.648;23.270;2023-04-15T12:46:27;17.70;1.00
1021;DHT22;499;42.648;23.270;2023-04-15T12:48:55;17.80;1.00
1021;DHT22;499;42.648;23.270;2023-04-15T12:51:22;17.10;1.00
1021;DHT22;499;42.648;23.270;2023-04-15T12:53:51;17.10;1.20
1021;DHT22;499;42.648;23.270;2023-04-15T12:56:18;17.20;1.00
1021;DHT22;499;42.648;23.270;2023-04-15T12:58:46;17.20;1.00
1021;DHT22;499;42.648;23.270;2023-04-15T13:01:14;17.20;1.40
1021;DHT22;499;42.648;23.270;2023-04-15T13:03:41;17.40;1.00
1021;DHT22;499;42.648;23.270;2023-04-15T13:06:08;17.30;1.00
1021;DHT22;499;42.648;23.270;2023-04-15T13:08:36;17.40;1.30
1021;DHT22;499;42.648;23.270;2023-04-15T13:11:03;17.10;2.50
1021;DHT22;499;42.648;23.270;2023-04-15T13:13:31;17.10;2.70
1021;DHT22;499;42.648;23.270;2023-04-15T13:15:59;17.20;1.50
1021;DHT22;499;42.648;23.270;2023-04-15T13:18:27;17.60;2.10
1021;DHT22;499;42.648;23.270;2023-04-15T13:20:55;17.40;1.00
1021;DHT22;499;42.648;23.270;2023-04-15T13:23:23;17.50;1.00
1021;DHT22;499;42.648;23.270;2023-04-15T13:25:50;17.80;1.00
1021;DHT22;499;42.648;23.270;2023-04-15T13:28:17;17.50;1.00
1021;DHT22;499;42.648;23.270;2023-04-15T13:30:44;17.60;1.00
1021;DHT22;499;42.648;23.270;2023-04-15T13:33:16;17.50;1.00
1021;DHT22;499;42.648;23.270;2023-04-15T13:35:43;17.50;1.00
1021;DHT22;499;42.648;23.270;2023-04-15T13:38:10;17.60;1.00
1021;DHT22;499;42.648;23.270;2023-04-15T13:40:38;17.80;1.40
1021;DHT22;499;42.648;23.270;2023-04-15T13:43:05;17.80;1.00
1021;DHT22;499;42.648;23.270;2023-04-15T13:45:32;17.60;1.00
1021;DHT22;499;42.648;23.270;2023-04-15T13:47:59;17.40;1.00
1021;DHT22;499;42.648;23.270;2023-04-15T13:50:28;17.50;2.30
1021;DHT22;499;42.648;23.270;2023-04-15T13:52:55;17.70;1.00
1021;DHT22;499;42.648;23.270;2023-04-15T13:55:22;17.60;1.00
1021;DHT22;499;42.648;23.270;2023-04-15T13:57:49;17.50;1.00
1021;DHT22;499;42.648;23.270;2023-04-15T14:00:17;17.20;1.00
1021;DHT22;499;42.648;23.270;2023-04-15T14:02:44;17.00;1.30
1021;DHT22;499;42.648;23.270;2023-04-15T14:05:11;16.90;1.00
1021;DHT22;499;42.648;23.270;2023-04-15T14:07:41;17.00;1.30
1021;DHT22;499;42.648;23.270;2023-04-15T14:10:09;16.80;1.10
1021;DHT22;499;42.648;23.270;2023-04-15T14:12:36;16.80;1.20
1021;DHT22;499;42.648;23.270;2023-04-15T14:15:04;16.80;1.20
1021;DHT22;499;42.648;23.270;2023-04-15T14:17:32;16.60;1.70
1021;DHT22;499;42.648;23.270;2023-04-15T14:19:59;16.40;2.10
1021;DHT22;499;42.648;23.270;2023-04-15T14:22:26;16.50;2.00
1021;DHT22;499;42.648;23.270;2023-04-15T14:24:55;16.70;1.80
1021;DHT22;499;42.648;23.270;2023-04-15T14:27:22;16.90;1.40
1021;DHT22;499;42.648;23.270;2023-04-15T14:29:49;17.10;1.60
1021;DHT22;499;42.648;23.270;2023-04-15T14:32:18;17.20;1.00
1021;DHT22;499;42.648;23.270;2023-04-15T14:34:45;17.10;1.00
1021;DHT22;499;42.648;23.270;2023-04-15T14:37:12;17.40;1.50
1021;DHT22;499;42.648;23.270;2023-04-15T14:39:39;17.60;2.20
1021;DHT22;499;42.648;23.270;2023-04-15T14:42:07;17.60;1.00
1021;DHT22;499;42.648;23.270;2023-04-15T14:44:35;17.80;1.00
1021;DHT22;499;42.648;23.270;2023-04-15T14:47:02;17.80;2.20
1021;DHT22;499;42.648;23.270;2023-04-15T14:49:29;17.70;1.00
1021;DHT22;499;42.648;23.270;2023-04-15T14:51:56;17.50;1.00
1021;DHT22;499;42.648;23.270;2023-04-15T14:54:23;17.30;1.00
1021;DHT22;499;42.648;23.270;2023-04-15T14:56:50;17.40;1.00
1021;DHT22;499;42.648;23.270;2023-04-15T14:59:18;17.50;1.00
1021;DHT22;499;42.648;23.270;2023-04-15T15:01:45;17.50;1.00
1021;DHT22;499;42.648;23.270;2023-04-15T15:04:12;17.40;1.00
1021;DHT22;499;42.648;23.270;2023-04-15T15:06:40;17.30;1.00
1021;DHT22;499;42.648;23.270;2023-04-15T15:09:07;17.40;1.00
1021;DHT22;499;42.648;23.270;2023-04-15T15:11:34;17.50;1.90
1021;DHT22;499;42.648;23.270;2023-04-15T15:14:01;17.60;1.60
1021;DHT22;499;42.648;23.270;2023-04-15T15:16:29;17.70;1.00
1021;DHT22;499;42.648;23.270;2023-04-15T15:18:56;17.80;1.00
1021;DHT22;499;42.648;23.270;2023-04-15T15:21:24;17.60;1.00
1021;DHT22;499;42.648;23.270;2023-04-15T15:23:51;17.70;1.00
1021;DHT22;499;42.648;23.270;2023-04-15T15:26:18;17.70;1.00
1021;DHT22;499;42.648;23.270;2023-04-15T15:28:45;18.10;1.00
1021;DHT22;499;42.648;23.270;2023-04-15T15:31:15;18.40;1.00
1021;DHT22;499;42.648;23.270;2023-04-15T15:33:43;18.10;1.00
1021;DHT22;499;42.648;23.270;2023-04-15T15:36:10;17.70;1.00
1021;DHT22;499;42.648;23.270;2023-04-15T15:38:39;17.70;1.00
1021;DHT22;499;42.648;23.270;2023-04-15T15:41:06;17.20;1.00
1021;DHT22;499;42.648;23.270;2023-04-15T15:43:33;17.10;1.00
1021;DHT22;499;42.648;23.270;2023-04-15T15:46:00;16.60;1.50
1021;DHT22;499;42.648;23.270;2023-04-15T15:48:27;16.30;1.60
1021;DHT22;499;42.648;23.270;2023-04-15T15:50:56;16.10;1.60
1021;DHT22;499;42.648;23.270;2023-04-15T15:53:23;16.20;2.40
1021;DHT22;499;42.648;23.270;2023-04-15T15:55:50;16.10;2.30
1021;DHT22;499;42.648;23.270;2023-04-15T15:58:17;15.90;2.10
1021;DHT22;499;42.648;23.270;2023-04-15T16:00:45;15.90;2.50
1021;DHT22;499;42.648;23.270;2023-04-15T16:03:12;15.80;2.40
1021;DHT22;499;42.648;23.270;2023-04-15T16:05:39;15.90;2.20
1021;DHT22;499;42.648;23.270;2023-04-15T16:08:08;15.90;2.60
1021;DHT22;499;42.648;23.270;2023-04-15T16:10:36;15.70;2.50
1021;DHT22;499;42.648;23.270;2023-04-15T16:13:04;15.70;2.30
1021;DHT22;499;42.648;23.270;2023-04-15T16:15:31;15.60;2.40
1021;DHT22;499;42.648;23.270;2023-04-15T16:17:59;15.40;2.70
1021;DHT22;499;42.648;23.270;2023-04-15T16:20:26;15.40;3.20
1021;DHT22;499;42.648;23.270;2023-04-15T16:22:55;15.30;2.80
1021;DHT22;499;42.648;23.270;2023-04-15T16:25:24;15.40;3.10
1021;DHT22;499;42.648;23.270;2023-04-15T16:27:51;15.40;2.80
1021;DHT22;499;42.648;23.270;2023-04-15T16:30:18;15.30;2.80
1021;DHT22;499;42.648;23.270;2023-04-15T16:32:45;15.30;3.20
1021;DHT22;499;42.648;23.270;2023-04-15T16:35:12;15.30;3.30
1021;DHT22;499;42.648;23.270;2023-04-15T16:37:41;15.10;3.50
1021;DHT22;499;42.648;23.270;2023-04-15T16:40:09;15.10;3.40
1021;DHT22;499;42.648;23.270;2023-04-15T16:42:38;15.00;3.40
1021;DHT22;499;42.648;23.270;2023-04-15T16:45:08;14.90;3.40
1021;DHT22;499;42.648;23.270;2023-04-15T16:47:35;14.80;3.60
1021;DHT22;499;42.648;23.270;2023-04-15T16:50:03;14.70;4.10
1021;DHT22;499;42.648;23.270;2023-04-15T16:52:30;14.70;3.50